createdAt,value
2019-04-25T00:02:01.827Z,11.50
2019-04-25T00:04:31.529Z,11.50
2019-04-25T00:07:00.020Z,11.50
2019-04-25T00:09:31.728Z,11.30
2019-04-25T00:12:00.255Z,11.30
2019-04-25T00:14:31.459Z,11.30
2019-04-25T00:17:01.607Z,11.40
2019-04-25T00:19:31.590Z,11.40
2019-04-25T00:22:02.070Z,11.20
2019-04-25T00:24:47.254Z,11.30
2019-04-25T00:27:15.610Z,11.20
2019-04-25T00:29:45.697Z,11.10
2019-04-25T00:32:14.249Z,11.10
2019-04-25T00:34:43.570Z,11.20
2019-04-25T00:37:14.006Z,11.10
2019-04-25T00:39:44.873Z,11.00
2019-04-25T00:42:12.867Z,10.70
2019-04-25T00:44:43.455Z,10.70
2019-04-25T00:47:11.826Z,10.90
2019-04-25T00:49:42.133Z,11.10
2019-04-25T00:52:11.626Z,10.80
2019-04-25T00:54:41.408Z,10.60
2019-04-25T00:57:12.133Z,10.60
2019-04-25T00:59:43.913Z,10.80
2019-04-25T01:02:16.714Z,10.70
2019-04-25T01:04:45.240Z,10.40
2019-04-25T01:07:13.644Z,10.20
2019-04-25T01:09:42.386Z,10.30
2019-04-25T01:12:11.549Z,10.50
2019-04-25T01:14:41.878Z,10.50
2019-04-25T01:17:11.548Z,10.60
2019-04-25T01:19:40.059Z,10.70
2019-04-25T01:22:09.628Z,10.80
2019-04-25T01:24:38.277Z,10.70
2019-04-25T01:27:07.193Z,10.80
2019-04-25T01:29:35.621Z,10.80
2019-04-25T01:32:05.586Z,10.90
2019-04-25T01:34:41.645Z,10.50
2019-04-25T01:37:11.680Z,10.20
2019-04-25T01:39:58.219Z,10.20
2019-04-25T01:42:30.935Z,10.20
2019-04-25T01:44:59.486Z,10.10
2019-04-25T01:47:27.895Z,10.00
2019-04-25T01:49:56.700Z,10.00
2019-04-25T01:52:25.149Z,9.90
2019-04-25T01:54:55.042Z,9.90
2019-04-25T01:57:23.962Z,10.00
2019-04-25T01:59:54.101Z,10.10
2019-04-25T02:02:24.120Z,10.20
2019-04-25T02:04:54.759Z,10.10
2019-04-25T02:07:23.386Z,10.00
2019-04-25T02:09:53.958Z,9.80
2019-04-25T02:12:23.672Z,9.90
2019-04-25T02:14:54.635Z,9.80
2019-04-25T02:17:24.098Z,9.90
2019-04-25T02:19:54.487Z,9.80
2019-04-25T02:22:24.245Z,9.40
2019-04-25T02:24:54.991Z,9.40
2019-04-25T02:27:24.191Z,9.50
2019-04-25T02:29:53.464Z,9.60
2019-04-25T02:32:24.790Z,9.60
2019-04-25T02:34:55.063Z,9.20
2019-04-25T02:37:25.305Z,9.10
2019-04-25T02:39:56.810Z,9.10
2019-04-25T02:42:24.670Z,9.20
2019-04-25T02:44:56.222Z,9.30
2019-04-25T02:47:29.262Z,9.00
2019-04-25T02:50:03.463Z,8.90
2019-04-25T02:52:39.741Z,9.00
2019-04-25T02:55:10.631Z,9.00
2019-04-25T02:57:38.227Z,8.80
2019-04-25T03:00:08.823Z,8.70
2019-04-25T03:02:37.383Z,9.00
2019-04-25T03:05:09.236Z,9.10
2019-04-25T03:07:35.851Z,9.20
2019-04-25T03:10:08.474Z,9.30
2019-04-25T03:12:36.859Z,9.20
2019-04-25T03:15:08.416Z,9.20
2019-04-25T03:17:35.691Z,9.30
2019-04-25T03:20:24.563Z,9.50
2019-04-25T03:22:54.690Z,9.50
2019-04-25T03:25:24.793Z,9.30
2019-04-25T03:27:54.120Z,9.40
2019-04-25T03:30:25.310Z,9.30
2019-04-25T03:32:52.576Z,9.50
2019-04-25T03:35:20.990Z,9.10
2019-04-25T03:37:49.380Z,8.90
2019-04-25T03:40:17.835Z,8.90
2019-04-25T03:42:46.207Z,9.20
2019-04-25T03:45:14.906Z,9.30
2019-04-25T03:47:43.422Z,9.30
2019-04-25T03:50:13.491Z,9.50
2019-04-25T03:52:43.596Z,9.50
2019-04-25T03:55:12.371Z,9.50
2019-04-25T03:57:40.886Z,9.50
2019-04-25T04:00:09.262Z,9.20
2019-04-25T04:02:37.686Z,8.90
2019-04-25T04:05:07.286Z,8.90
2019-04-25T04:07:36.281Z,8.90
2019-04-25T04:10:06.639Z,8.90
2019-04-25T04:12:35.559Z,9.10
2019-04-25T04:15:06.059Z,9.20
2019-04-25T04:17:39.371Z,9.30
2019-04-25T04:20:09.550Z,9.30
2019-04-25T04:22:45.811Z,9.30
2019-04-25T04:25:16.021Z,9.30
2019-04-25T04:27:44.441Z,8.80
2019-04-25T04:30:14.471Z,8.60
2019-04-25T04:32:44.156Z,8.80
2019-04-25T04:35:14.623Z,9.00
2019-04-25T04:37:43.212Z,9.20
2019-04-25T04:40:11.842Z,9.20
2019-04-25T04:42:40.246Z,9.30
2019-04-25T04:45:08.652Z,9.30
2019-04-25T04:47:37.038Z,9.30
2019-04-25T04:50:05.909Z,9.30
2019-04-25T04:52:34.285Z,9.40
2019-04-25T04:55:06.267Z,9.30
2019-04-25T04:57:35.841Z,9.30
2019-04-25T05:00:03.714Z,9.50
2019-04-25T05:02:39.746Z,9.20
2019-04-25T05:05:26.604Z,9.10
2019-04-25T05:07:56.632Z,9.10
2019-04-25T05:10:25.074Z,9.20
2019-04-25T05:12:53.473Z,9.20
2019-04-25T05:15:23.007Z,9.20
2019-04-25T05:17:51.930Z,9.40
2019-04-25T05:20:20.345Z,9.50
2019-04-25T05:22:48.726Z,9.60
2019-04-25T05:25:17.792Z,10.10
2019-04-25T05:27:59.422Z,11.50
2019-04-25T05:30:19.180Z,13.50
2019-04-25T05:32:47.659Z,15.40
2019-04-25T05:35:16.346Z,17.90
2019-04-25T05:37:44.914Z,19.90
2019-04-25T05:40:14.695Z,20.90
2019-04-25T05:42:50.949Z,21.80
2019-04-25T05:45:21.279Z,22.80
2019-04-25T05:47:49.741Z,23.80
2019-04-25T05:50:18.146Z,24.30
2019-04-25T05:52:46.562Z,24.70
2019-04-25T05:55:17.332Z,24.40
2019-04-25T05:57:49.891Z,23.50
2019-04-25T06:00:15.210Z,22.50
2019-04-25T06:02:45.856Z,21.50
2019-04-25T06:05:13.896Z,20.60
2019-04-25T06:07:43.236Z,19.90
2019-04-25T06:10:14.453Z,19.50
2019-04-25T06:12:54.373Z,19.00
2019-04-25T06:15:25.013Z,18.90
2019-04-25T06:17:55.568Z,19.10
2019-04-25T06:20:25.777Z,19.00
2019-04-25T06:23:07.791Z,18.90
2019-04-25T06:25:39.594Z,19.10
2019-04-25T06:28:17.079Z,18.90
2019-04-25T06:30:45.452Z,18.70
2019-04-25T06:33:13.900Z,18.90
2019-04-25T06:35:44.063Z,19.10
2019-04-25T06:38:13.378Z,19.30
2019-04-25T06:40:43.600Z,19.00
2019-04-25T06:43:13.352Z,18.20
2019-04-25T06:45:55.505Z,17.90
2019-04-25T06:48:26.056Z,17.70
2019-04-25T06:50:55.208Z,17.40
2019-04-25T06:53:25.655Z,17.50
2019-04-25T06:55:53.647Z,17.50
2019-04-25T06:58:23.303Z,17.60
2019-04-25T07:01:00.050Z,17.30
2019-04-25T07:03:22.845Z,17.20
2019-04-25T07:05:53.440Z,17.10
2019-04-25T07:08:23.772Z,17.00
2019-04-25T07:10:53.772Z,16.80
2019-04-25T07:13:23.759Z,16.80
2019-04-25T07:15:53.382Z,16.90
2019-04-25T07:18:23.533Z,17.00
2019-04-25T07:20:53.377Z,17.30
2019-04-25T07:23:23.515Z,17.70
2019-04-25T07:25:53.850Z,17.70
2019-04-25T07:28:28.985Z,17.70
2019-04-25T07:30:58.488Z,17.90
2019-04-25T07:33:29.464Z,18.00
2019-04-25T07:35:57.879Z,18.10
2019-04-25T07:38:26.929Z,18.30
2019-04-25T07:40:55.334Z,18.40
2019-04-25T07:43:23.731Z,18.60
2019-04-25T07:45:53.530Z,18.90
2019-04-25T07:48:23.199Z,19.10
2019-04-25T07:50:53.622Z,19.20
2019-04-25T07:53:23.739Z,19.10
2019-04-25T07:55:52.140Z,19.20
2019-04-25T07:58:20.540Z,19.30
2019-04-25T08:00:48.919Z,19.40
2019-04-25T08:03:17.293Z,19.60
2019-04-25T08:05:45.684Z,19.60
2019-04-25T08:08:14.051Z,19.70
2019-04-25T08:10:57.536Z,19.60
2019-04-25T08:13:27.756Z,19.70
2019-04-25T08:16:04.524Z,19.80
2019-04-25T08:18:32.891Z,19.90
2019-04-25T08:21:01.273Z,20.10
2019-04-25T08:23:32.333Z,20.40
2019-04-25T08:25:59.675Z,20.50
2019-04-25T08:28:28.052Z,20.60
2019-04-25T08:30:56.445Z,20.80
2019-04-25T08:33:24.816Z,20.90
2019-04-25T08:36:04.566Z,21.10
2019-04-25T08:38:23.913Z,21.40
2019-04-25T08:40:54.163Z,21.60
2019-04-25T08:43:24.246Z,21.60
2019-04-25T08:45:54.259Z,21.60
2019-04-25T08:48:24.418Z,21.80
2019-04-25T08:50:57.451Z,21.90
2019-04-25T08:53:26.795Z,21.90
2019-04-25T08:55:59.806Z,21.80
2019-04-25T08:58:45.676Z,21.60
2019-04-25T09:01:28.032Z,21.80
2019-04-25T09:04:05.172Z,21.90
2019-04-25T09:06:36.022Z,22.10
2019-04-25T09:09:07.083Z,21.90
2019-04-25T09:11:36.637Z,22.00
2019-04-25T09:14:04.426Z,22.20
2019-04-25T09:16:34.534Z,22.40
2019-04-25T09:19:03.090Z,22.40
2019-04-25T09:21:34.184Z,22.30
2019-04-25T09:24:03.395Z,22.30
2019-04-25T09:26:31.894Z,22.30
2019-04-25T09:29:00.272Z,22.40
2019-04-25T09:31:28.673Z,22.60
2019-04-25T09:33:57.052Z,22.70
2019-04-25T09:36:25.511Z,22.80
2019-04-25T09:38:55.545Z,22.60
2019-04-25T09:41:23.933Z,22.50
2019-04-25T09:43:54.985Z,22.60
2019-04-25T09:46:28.081Z,22.80
2019-04-25T09:49:00.811Z,22.90
2019-04-25T09:51:33.833Z,23.20
2019-04-25T09:54:03.543Z,23.40
2019-04-25T09:56:33.974Z,23.20
2019-04-25T09:59:06.756Z,23.20
2019-04-25T10:01:36.400Z,23.30
2019-04-25T10:04:04.892Z,23.40
2019-04-25T10:06:33.389Z,23.70
2019-04-25T10:09:01.769Z,23.80
2019-04-25T10:11:30.160Z,23.90
2019-04-25T10:14:26.157Z,24.00
2019-04-25T10:16:54.555Z,24.00
2019-04-25T10:19:23.539Z,23.90
2019-04-25T10:21:55.016Z,23.80
2019-04-25T10:24:22.079Z,23.90
2019-04-25T10:26:50.462Z,23.90
2019-04-25T10:29:18.841Z,24.10
2019-04-25T10:31:47.251Z,24.30
2019-04-25T10:34:15.616Z,24.40
2019-04-25T10:36:45.359Z,24.20
2019-04-25T10:39:14.638Z,24.20
2019-04-25T10:41:44.830Z,24.20
2019-04-25T10:44:14.230Z,24.20
2019-04-25T10:46:45.672Z,24.20
2019-04-25T10:49:14.481Z,24.40
2019-04-25T10:51:44.747Z,24.70
2019-04-25T10:54:14.505Z,24.70
2019-04-25T10:56:45.744Z,24.90
2019-04-25T10:59:14.429Z,24.90
2019-04-25T11:01:44.677Z,25.20
2019-04-25T11:04:14.744Z,25.70
2019-04-25T11:06:45.357Z,26.30
2019-04-25T11:09:17.366Z,27.30
2019-04-25T11:11:45.889Z,28.00
2019-04-25T11:14:14.628Z,28.50
2019-04-25T11:16:45.324Z,28.70
2019-04-25T11:19:13.597Z,28.90
2019-04-25T11:21:44.278Z,28.50
2019-04-25T11:24:12.334Z,29.70
2019-04-25T11:26:41.515Z,29.40
2019-04-25T11:29:10.105Z,28.80
2019-04-25T11:31:40.119Z,28.30
2019-04-25T11:34:09.156Z,27.80
2019-04-25T11:36:37.531Z,27.80
2019-04-25T11:39:09.018Z,27.80
2019-04-25T11:41:37.388Z,27.60
2019-04-25T11:44:05.943Z,27.10
2019-04-25T11:46:34.347Z,27.00
2019-04-25T11:49:04.415Z,27.00
2019-04-25T11:51:34.048Z,27.00
2019-04-25T11:54:03.600Z,26.80
2019-04-25T11:56:32.193Z,26.80
2019-04-25T11:59:00.583Z,26.80
2019-04-25T12:01:29.524Z,26.60
2019-04-25T12:03:57.919Z,26.50
2019-04-25T12:06:26.293Z,26.60
2019-04-25T12:08:55.283Z,26.60
2019-04-25T12:11:24.550Z,26.90
2019-04-25T12:13:54.170Z,27.00
2019-04-25T12:16:24.634Z,26.90
2019-04-25T12:18:55.315Z,26.70
2019-04-25T12:21:23.947Z,26.40
2019-04-25T12:23:52.540Z,26.40
2019-04-25T12:26:20.920Z,26.40
2019-04-25T12:28:49.356Z,26.60
2019-04-25T12:31:17.712Z,26.60
2019-04-25T12:33:47.688Z,26.80
2019-04-25T12:36:16.132Z,26.80
2019-04-25T12:38:46.053Z,27.10
2019-04-25T12:41:14.495Z,27.20
2019-04-25T12:43:45.665Z,27.30
2019-04-25T12:46:18.586Z,27.10
2019-04-25T12:48:47.642Z,27.00
2019-04-25T12:51:16.212Z,26.90
2019-04-25T12:53:44.613Z,27.10
2019-04-25T12:56:12.980Z,27.30
2019-04-25T12:58:41.459Z,27.40
2019-04-25T13:01:10.205Z,27.50
2019-04-25T13:03:38.607Z,27.80
2019-04-25T13:06:06.990Z,27.90
2019-04-25T13:08:35.363Z,27.60
2019-04-25T13:11:08.655Z,27.50
2019-04-25T13:13:34.052Z,27.60
2019-04-25T13:16:04.253Z,27.50
2019-04-25T13:18:32.509Z,27.30
2019-04-25T13:21:00.920Z,27.50
2019-04-25T13:23:31.841Z,27.70
2019-04-25T13:25:59.420Z,27.50
2019-04-25T13:28:44.322Z,27.20
2019-04-25T13:31:14.946Z,27.10
2019-04-25T13:34:05.549Z,26.90
2019-04-25T13:36:34.734Z,26.60
2019-04-25T13:39:05.564Z,26.40
2019-04-25T13:41:33.945Z,26.50
2019-04-25T13:44:03.518Z,26.60
2019-04-25T13:46:34.192Z,26.50
2019-04-25T13:49:04.135Z,26.40
2019-04-25T13:51:33.238Z,26.30
2019-04-25T13:54:01.703Z,26.10
2019-04-25T13:56:30.712Z,26.10
2019-04-25T13:58:59.174Z,26.10
2019-04-25T14:01:27.692Z,26.20
2019-04-25T14:03:56.039Z,26.10
2019-04-25T14:06:24.431Z,26.20
2019-04-25T14:08:53.413Z,26.50
2019-04-25T14:11:21.970Z,26.50
2019-04-25T14:13:50.357Z,26.40
2019-04-25T14:16:25.389Z,26.40
2019-04-25T14:19:13.035Z,26.40
2019-04-25T14:21:43.310Z,26.60
2019-04-25T14:24:20.195Z,26.40
2019-04-25T14:26:41.873Z,26.40
2019-04-25T14:29:10.249Z,26.50
2019-04-25T14:31:45.496Z,26.60
2019-04-25T14:34:08.667Z,26.60
2019-04-25T14:36:37.072Z,26.70
2019-04-25T14:39:06.595Z,26.60
2019-04-25T14:41:35.004Z,26.60
2019-04-25T14:44:03.373Z,26.60
2019-04-25T14:46:32.236Z,26.70
2019-04-25T14:49:00.640Z,26.80
2019-04-25T14:51:29.034Z,26.70
2019-04-25T14:53:58.880Z,26.60
2019-04-25T14:56:28.929Z,26.60
2019-04-25T14:58:57.310Z,26.40
2019-04-25T15:01:26.060Z,26.40
2019-04-25T15:03:54.547Z,26.30
2019-04-25T15:06:23.385Z,26.40
2019-04-25T15:08:52.827Z,26.30
2019-04-25T15:11:21.215Z,26.30
2019-04-25T15:13:49.596Z,26.30
2019-04-25T15:16:17.995Z,26.30
2019-04-25T15:18:47.153Z,26.20
2019-04-25T15:21:15.663Z,26.20
2019-04-25T15:23:44.037Z,26.20
2019-04-25T15:26:12.430Z,26.30
2019-04-25T15:28:40.937Z,26.40
2019-04-25T15:31:09.297Z,26.30
2019-04-25T15:33:37.672Z,26.30
2019-04-25T15:36:24.738Z,26.30
2019-04-25T15:38:57.860Z,26.30
2019-04-25T15:41:43.145Z,26.20
2019-04-25T15:44:25.418Z,26.20
2019-04-25T15:46:55.433Z,26.10
2019-04-25T15:49:24.366Z,26.10
2019-04-25T15:51:53.639Z,26.10
2019-04-25T15:54:22.008Z,26.10
2019-04-25T15:56:50.410Z,26.10
2019-04-25T15:59:18.826Z,26.00
2019-04-25T16:01:47.188Z,25.90
2019-04-25T16:04:15.560Z,25.80
2019-04-25T16:06:43.963Z,25.80
2019-04-25T16:09:12.359Z,25.80
2019-04-25T16:11:40.732Z,25.70
2019-04-25T16:14:09.105Z,25.60
2019-04-25T16:16:38.375Z,25.60
2019-04-25T16:19:06.963Z,25.60
2019-04-25T16:21:35.514Z,25.60
2019-04-25T16:24:03.998Z,25.60
2019-04-25T16:26:32.405Z,25.60
2019-04-25T16:29:00.967Z,25.60
2019-04-25T16:31:30.404Z,25.60
2019-04-25T16:33:59.370Z,25.60
2019-04-25T16:36:27.824Z,25.70
2019-04-25T16:38:56.487Z,25.80
2019-04-25T16:41:25.044Z,25.80
2019-04-25T16:43:55.077Z,25.90
2019-04-25T16:46:24.148Z,26.00
2019-04-25T16:48:52.540Z,25.90
2019-04-25T16:51:21.075Z,25.90
2019-04-25T16:53:49.483Z,25.90
2019-04-25T16:56:17.860Z,25.80
2019-04-25T16:58:46.256Z,25.80
2019-04-25T17:01:15.101Z,25.80
2019-04-25T17:03:43.846Z,25.70
2019-04-25T17:06:12.873Z,25.60
2019-04-25T17:08:41.259Z,25.60
2019-04-25T17:11:10.108Z,25.40
2019-04-25T17:13:40.161Z,25.40
2019-04-25T17:16:16.165Z,25.30
2019-04-25T17:18:49.041Z,25.20
2019-04-25T17:21:16.809Z,25.00
2019-04-25T17:23:45.276Z,24.90
2019-04-25T17:26:14.217Z,24.80
2019-04-25T17:28:44.267Z,24.60
2019-04-25T17:31:26.245Z,24.60
2019-04-25T17:34:05.070Z,24.50
2019-04-25T17:36:46.956Z,24.40
2019-04-25T17:39:33.421Z,24.30
2019-04-25T17:42:01.836Z,24.30
2019-04-25T17:44:30.242Z,24.20
2019-04-25T17:47:06.229Z,24.20
2019-04-25T17:49:28.645Z,24.20
2019-04-25T17:51:57.020Z,24.10
2019-04-25T17:54:25.408Z,24.10
2019-04-25T17:56:53.800Z,24.00
2019-04-25T17:59:22.360Z,23.90
2019-04-25T18:01:52.297Z,23.80
2019-04-25T18:04:20.814Z,23.60
2019-04-25T18:06:49.186Z,23.30
2019-04-25T18:09:17.577Z,23.00
2019-04-25T18:11:45.968Z,22.90
2019-04-25T18:14:14.444Z,22.70
2019-04-25T18:16:49.911Z,22.50
2019-04-25T18:19:25.068Z,22.50
2019-04-25T18:21:54.322Z,22.50
2019-04-25T18:24:39.669Z,22.30
2019-04-25T18:27:18.883Z,22.10
2019-04-25T18:29:47.267Z,21.80
2019-04-25T18:32:15.647Z,21.60
2019-04-25T18:35:02.104Z,21.50
2019-04-25T18:37:32.128Z,21.20
2019-04-25T18:40:02.159Z,21.00
2019-04-25T18:42:36.441Z,20.70
2019-04-25T18:45:07.194Z,20.50
2019-04-25T18:47:36.832Z,20.40
2019-04-25T18:50:06.731Z,20.10
2019-04-25T18:52:47.014Z,19.90
2019-04-25T18:55:23.410Z,19.80
2019-04-25T18:57:53.434Z,19.70
2019-04-25T19:00:23.481Z,19.60
2019-04-25T19:02:53.518Z,19.50
2019-04-25T19:05:23.613Z,19.20
2019-04-25T19:07:52.034Z,19.00
2019-04-25T19:10:20.525Z,19.00
2019-04-25T19:12:48.901Z,18.80
2019-04-25T19:15:17.312Z,18.70
2019-04-25T19:17:45.699Z,18.60
2019-04-25T19:20:14.186Z,18.60
2019-04-25T19:22:43.607Z,18.40
2019-04-25T19:25:12.323Z,18.30
2019-04-25T19:27:40.804Z,18.30
2019-04-25T19:30:11.905Z,18.30
2019-04-25T19:32:40.631Z,18.10
2019-04-25T19:35:10.010Z,17.80
2019-04-25T19:37:38.385Z,17.60
2019-04-25T19:40:11.359Z,17.40
2019-04-25T19:42:51.171Z,17.30
2019-04-25T19:45:19.666Z,17.20
2019-04-25T19:47:48.066Z,17.20
2019-04-25T19:50:16.507Z,17.10
2019-04-25T19:52:45.585Z,17.00
2019-04-25T19:55:14.068Z,17.00
2019-04-25T19:57:42.532Z,16.80
2019-04-25T20:00:10.894Z,16.70
2019-04-25T20:02:44.477Z,16.60
2019-04-25T20:05:14.694Z,16.60
2019-04-25T20:07:53.771Z,16.70
2019-04-25T20:10:42.623Z,16.70
2019-04-25T20:13:12.110Z,16.60
2019-04-25T20:15:40.521Z,16.60
2019-04-25T20:18:08.986Z,16.60
2019-04-25T20:20:37.411Z,16.60
2019-04-25T20:23:05.825Z,16.50
2019-04-25T20:25:34.312Z,16.30
2019-04-25T20:28:02.693Z,16.20
2019-04-25T20:30:31.106Z,16.10
2019-04-25T20:32:59.487Z,15.90
2019-04-25T20:35:27.885Z,15.90
2019-04-25T20:37:56.301Z,15.80
2019-04-25T20:40:24.732Z,15.80
2019-04-25T20:42:53.958Z,15.70
2019-04-25T20:45:22.694Z,15.70
2019-04-25T20:47:52.069Z,15.70
2019-04-25T20:50:20.599Z,15.80
2019-04-25T20:52:48.994Z,15.90
2019-04-25T20:55:17.414Z,15.90
2019-04-25T20:57:45.790Z,15.80
2019-04-25T21:00:19.142Z,15.70
2019-04-25T21:02:48.324Z,15.80
2019-04-25T21:05:16.953Z,15.80
2019-04-25T21:07:45.341Z,15.70
2019-04-25T21:10:13.758Z,15.70
2019-04-25T21:12:42.139Z,15.80
2019-04-25T21:15:12.181Z,15.70
2019-04-25T21:17:52.093Z,15.50
2019-04-25T21:20:20.646Z,15.30
2019-04-25T21:22:49.432Z,15.30
2019-04-25T21:25:18.757Z,15.30
2019-04-25T21:27:47.141Z,15.20
2019-04-25T21:30:15.529Z,15.20
2019-04-25T21:32:45.607Z,15.10
2019-04-25T21:35:14.111Z,15.10
2019-04-25T21:37:42.528Z,15.10
2019-04-25T21:40:12.936Z,15.00
2019-04-25T21:42:43.416Z,14.90
2019-04-25T21:45:12.101Z,14.90
2019-04-25T21:47:40.522Z,14.80
2019-04-25T21:50:09.318Z,14.90
2019-04-25T21:52:37.814Z,14.80
2019-04-25T21:55:06.495Z,14.70
2019-04-25T21:57:35.107Z,14.70
2019-04-25T22:00:10.532Z,14.80
2019-04-25T22:02:39.626Z,14.70
2019-04-25T22:05:08.279Z,14.60
2019-04-25T22:07:37.020Z,14.60
2019-04-25T22:10:08.826Z,14.70
2019-04-25T22:12:37.226Z,14.60
2019-04-25T22:15:09.190Z,14.60
2019-04-25T22:17:37.617Z,14.60
2019-04-25T22:20:06.541Z,14.50
2019-04-25T22:22:35.071Z,14.40
2019-04-25T22:25:04.637Z,14.40
2019-04-25T22:27:36.689Z,14.40
2019-04-25T22:30:09.101Z,14.30
2019-04-25T22:32:39.343Z,14.20
2019-04-25T22:35:15.618Z,14.30
2019-04-25T22:37:44.115Z,14.20
2019-04-25T22:40:12.494Z,14.30
2019-04-25T22:42:40.900Z,14.30
2019-04-25T22:45:09.288Z,14.30
2019-04-25T22:47:37.694Z,14.30
2019-04-25T22:50:06.537Z,14.10
2019-04-25T22:52:35.241Z,14.10
2019-04-25T22:55:04.498Z,14.00
2019-04-25T22:57:33.212Z,14.10
2019-04-25T23:00:03.030Z,14.10
2019-04-25T23:02:39.144Z,14.10
2019-04-25T23:05:15.063Z,13.90
2019-04-25T23:07:42.365Z,13.80
2019-04-25T23:10:11.135Z,13.80
2019-04-25T23:12:39.542Z,13.70
2019-04-25T23:15:08.800Z,13.80
2019-04-25T23:17:37.315Z,13.80
2019-04-25T23:20:06.068Z,13.70
2019-04-25T23:22:34.487Z,13.40
2019-04-25T23:25:06.065Z,13.00
2019-04-25T23:27:36.241Z,13.00
2019-04-25T23:30:08.027Z,12.70
2019-04-25T23:32:36.742Z,12.40
2019-04-25T23:35:14.752Z,12.50
2019-04-25T23:37:35.341Z,12.50
2019-04-25T23:40:05.126Z,12.70
2019-04-25T23:42:33.813Z,12.80
2019-04-25T23:45:02.503Z,12.30
2019-04-25T23:47:30.909Z,11.80
2019-04-25T23:49:59.561Z,11.50
2019-04-25T23:52:27.976Z,11.60
2019-04-25T23:54:56.373Z,11.60
2019-04-25T23:57:25.064Z,11.80
2019-04-25T23:59:53.472Z,12.10
